Aeroporto :
LOGIN :

Iscrizione | Disclaimer

   EN    FR    IT 

 










Sommario :    VFR   VFR Marginale   IFR   IFR Intensivo   IFR Molto Intensivo
Visibilità : 
Base nubi : 
>= 8 km
>= 3000ft
5 / 8 km
1000 / 3000 ft
1500m / 5 km
500 / 1000 ft
800 / 1500m
200 / 500 ft
< 800m
< 200 ft
Simboli :   Temporali  Nebbia  Neve Forte  Precipitazioni Forti  Vento > 20 kt
SIGMETs :   Varie  Temporali  Ghiacco  Turbolenza  Onda orograficha  Ceneri Vulcaniche






- Altitudine del aeroporto : 0 ft


ENQA - Troll A Platform

ULTIMO METAR :
  • 191920Z AUTO 17028KT 9999NDV FEW017/// 06/03 Q1000 W05/S5

METARs OBSOLETI :
  • 191850Z AUTO 16026KT 9999NDV SCT016/// BKN037/// 06/03 Q1000 W05/S5
  • 191820Z AUTO 16025KT 9999NDV BKN015/// 06/03 Q1000 W06/S5
  • 191750Z AUTO 16023KT 9999NDV FEW014/// SCT035/// 06/03 Q1000 W05/S5
  • 191720Z AUTO 16022KT 9999NDV FEW013/// SCT030/// 06/03 Q1001 W05/S5
  • 191650Z AUTO 17021KT 9999NDV BKN018/// 06/03 Q1001 W05/S5

TAF N/A



MetMap, La meteo Aeronautica in un colpo d'occhio ! - Copyright ORBIFLY Dicembre 2007 - Disclaimer

ORBIFLY MET'MAP TEAM :

Programmazione e sviluppo : Alexandra Zaïnal
Concezione : Baudouin d'Aumeries
Aiuto per la programmazione : Marc-Olivier Méhu
Supporto tecnico e logistico : Manuel Goepfert
Aiuto per la traduzione : Arnaldo La Scala

Contatto : metmap@orbifly.com




FONTI E CREDITI :

   NOAA